Ottawa Gatineau Airport
CYND : now visible

Airfield :











YOU CAN JOIN US ON...

 
LOGIN :

Register | Disclaimer

   EN    FR    IT 

 









Legend :    VFR   Marginal VFR   IFR   Intensive IFR   Very Intensive IFR
Visi :
Ceiling :
>= 8 km
>= 3000ft
5 to 8 km
1000 to 3000 ft
1500m to 5 km
500 to 1000 ft
800 to 1500m
200 to 500 ft
< 800m
< 200 ft
Symbols :   Thunderstorms  Fog  Heavy snow  Heavy precipitations  Wind > 20 kt






- Airport Elevation : 211 ft
- IATA code : YND


CYND - Ottawa Gatineau

CURRENT METAR :
  • 011540Z 09005KT 12SM FEW011 SCT020 BKN070 M17/M20 A3022 RMK SC1SC3AC2 SLP241

EXPIRED METARs :
  • 011529Z 10004KT 12SM -SN FEW011 BKN020 M17/M20 A3022 RMK SC2SC4 SLP241
  • 011500Z 07007KT 5SM -SN BKN017 M18/M20 A3022 RMK SC7 SLP241
  • 011400Z 12004KT 4SM -SN OVC027 M19/M21 A3022 RMK SC8 SLP244
  • 011314Z 00000KT 3SM -SN OVC034 M20/M23 A3024 RMK SN2SC6 SLP248
  • 011300Z 07002KT 2 1/2SM -SN OVC030 M21/M23 A3023 RMK SN4SC4 SLP247

TAF TAF CYND
Valid from the 01 at 14:00 until the 02 at 02:00 UTC


011340Z 0114/0202 VRB03KT P6SM BKN040
TEMPO 0114/0121 5SM -SN BKN020 OVC040
FM012100 23008KT P6SM BKN040
TEMPO 0121/0202 5SM -SN RMK NXT FCST BY 011800Z
CZUL FIR / North America



MET'MAP, your aeronautical weather chart ! - Copyright ORBIFLY December 2007 - Disclaimer

ORBIFLY MET'MAP TEAM :

Programming & Development : Alexandra Zaïnal
Original concept : Baudouin d'Aumeries
Technical & hardware support : Manuel Goepfert
Assistance : Marc-Olivier Méhu




SOURCES & CREDITS :

   NOAA       Earth
Advisory